Time;durP1;ratioP1;P1;durP2;ratioP2;P2;SDS_P1;SDS_P2;PMS_P1;PMS_P2;Temp;Humidity;BMP_temperature;BMP_pressure;BME280_temperature;BME280_humidity;BME280_pressure;Samples;Min_cycle;Max_cycle;Signal;HPM_P1;HPM_P2
2023/03/01 00:00:52;;;;;;;0.00;0.00;;;-0.70;99.90;;;;;;5053680;28;20319;-73
2023/03/01 00:03:18;;;;;;;0.10;0.10;;;-0.70;99.90;;;;;;5053356;28;20256;-72
2023/03/01 00:05:45;;;;;;;0.00;0.00;;;-0.70;99.90;;;;;;5065549;28;20224;-72
2023/03/01 00:08:11;;;;;;;0.00;0.00;;;-0.70;99.90;;;;;;5070454;28;20181;-72
2023/03/01 00:10:37;;;;;;;0.00;0.00;;;-0.70;99.90;;;;;;5053554;28;20189;-71
2023/03/01 00:13:04;;;;;;;0.20;0.20;;;-0.80;99.90;;;;;;5053645;28;20185;-71
2023/03/01 00:15:30;;;;;;;0.00;0.00;;;-0.80;99.90;;;;;;5052176;28;20571;-71
2023/03/01 00:17:56;;;;;;;0.00;0.00;;;-0.80;99.90;;;;;;5053614;28;20633;-72
2023/03/01 00:20:22;;;;;;;0.00;0.00;;;-0.80;99.90;;;;;;5053299;28;20182;-71
2023/03/01 00:22:48;;;;;;;0.83;0.67;;;-0.80;99.90;;;;;;5053047;28;20217;-72
2023/03/01 00:25:13;;;;;;;0.00;0.00;;;-0.80;99.90;;;;;;5053551;28;20921;-71
2023/03/01 00:27:39;;;;;;;0.00;0.00;;;-0.80;99.90;;;;;;5053303;28;20185;-71
2023/03/01 00:30:05;;;;;;;0.00;0.00;;;-0.80;99.90;;;;;;5053437;28;20185;-72
2023/03/01 00:32:31;;;;;;;0.00;0.00;;;-0.80;99.90;;;;;;5053530;28;20181;-73
2023/03/01 00:34:56;;;;;;;0.00;0.00;;;-0.90;99.90;;;;;;5053549;28;20220;-73
2023/03/01 00:37:23;;;;;;;0.00;0.00;;;-0.90;99.90;;;;;;5053048;28;20764;-72
2023/03/01 00:39:49;;;;;;;0.10;0.10;;;-0.90;99.90;;;;;;5052989;28;20192;-72
2023/03/01 00:42:15;;;;;;;0.00;0.00;;;-0.90;99.90;;;;;;5051341;28;20182;-73
2023/03/01 00:44:41;;;;;;;0.00;0.00;;;-0.90;99.90;;;;;;5045149;28;20204;-72
2023/03/01 00:47:06;;;;;;;0.00;0.00;;;-0.90;99.90;;;;;;5052570;28;20185;-72
2023/03/01 00:49:32;;;;;;;0.30;0.30;;;-0.90;99.90;;;;;;5051372;28;20181;-72
2023/03/01 00:51:57;;;;;;;0.00;0.00;;;-0.90;99.90;;;;;;5051472;28;20189;-72
2023/03/01 00:54:23;;;;;;;0.00;0.00;;;-0.90;99.90;;;;;;5052643;28;20177;-71
2023/03/01 00:56:48;;;;;;;0.00;0.00;;;-0.90;99.90;;;;;;5052647;28;20182;-72
2023/03/01 00:59:14;;;;;;;0.00;0.00;;;-1.00;99.90;;;;;;5052512;28;20272;-73
2023/03/01 01:01:40;;;;;;;0.00;0.00;;;-1.00;99.90;;;;;;5052453;28;20199;-65
2023/03/01 01:04:09;;;;;;;0.00;0.00;;;-1.00;99.90;;;;;;5052298;28;20189;-73
2023/03/01 01:06:44;;;;;;;0.00;0.00;;;-1.00;99.90;;;;;;5052119;28;20213;-73
2023/03/01 01:09:16;;;;;;;0.20;0.20;;;-1.00;99.90;;;;;;5061561;28;20651;-73
2023/03/01 01:11:51;;;;;;;0.00;0.00;;;-1.00;99.90;;;;;;5052836;28;20182;-73
2023/03/01 01:14:18;;;;;;;0.00;0.00;;;-1.00;99.90;;;;;;5051260;28;20300;-74
2023/03/01 01:16:44;;;;;;;0.00;0.00;;;-1.00;99.90;;;;;;5051963;28;20182;-74
2023/03/01 01:19:11;;;;;;;0.00;0.00;;;-1.00;99.90;;;;;;5052020;28;20544;-73
2023/03/01 01:21:37;;;;;;;0.00;0.00;;;-1.10;99.90;;;;;;5052198;28;20204;-73
2023/03/01 01:24:04;;;;;;;0.00;0.00;;;-1.10;99.90;;;;;;5052018;28;20177;-73
2023/03/01 01:26:32;;;;;;;0.00;0.00;;;-1.10;99.90;;;;;;5051948;28;20207;-73
2023/03/01 01:28:59;;;;;;;0.00;0.00;;;-1.10;99.90;;;;;;5052041;28;20209;-73
2023/03/01 01:31:26;;;;;;;0.00;0.00;;;-1.10;99.90;;;;;;5051796;28;20668;-72
2023/03/01 01:33:53;;;;;;;0.27;0.23;;;-1.10;99.90;;;;;;5051842;28;20185;-73
2023/03/01 01:36:18;;;;;;;0.10;0.10;;;-1.10;99.90;;;;;;5051691;28;20277;-73
2023/03/01 01:38:44;;;;;;;0.30;0.30;;;-1.10;99.90;;;;;;5051801;28;20212;-73
2023/03/01 01:41:12;;;;;;;0.10;0.10;;;-1.10;99.90;;;;;;5051884;28;20220;-73
2023/03/01 01:43:43;;;;;;;0.10;0.10;;;-1.10;99.90;;;;;;5051425;28;20194;-73
2023/03/01 01:46:25;;;;;;;0.00;0.00;;;-1.00;99.90;;;;;;5051969;28;20336;-73
2023/03/01 01:48:58;;;;;;;0.00;0.00;;;-1.10;99.90;;;;;;5051183;28;20181;-73
2023/03/01 01:51:37;;;;;;;0.00;0.00;;;-1.10;99.90;;;;;;5051603;28;20182;-73
2023/03/01 01:54:21;;;;;;;0.00;0.00;;;-1.10;99.90;;;;;;5051141;28;20181;-73
2023/03/01 01:56:54;;;;;;;0.00;0.00;;;-1.10;99.90;;;;;;5053560;28;20181;-73
2023/03/01 01:59:24;;;;;;;0.00;0.00;;;-1.10;99.90;;;;;;5051390;28;20181;-73
2023/03/01 02:01:51;;;;;;;0.00;0.00;;;-1.10;99.90;;;;;;5052239;28;20256;-73
2023/03/01 02:04:16;;;;;;;0.10;0.10;;;-1.10;99.90;;;;;;5052254;28;20648;-73
2023/03/01 02:07:04;;;;;;;0.00;0.00;;;-1.10;99.90;;;;;;5065233;28;20243;-73
2023/03/01 02:09:32;;;;;;;0.00;0.00;;;-1.10;99.90;;;;;;5051441;28;20212;-73
2023/03/01 02:11:58;;;;;;;0.00;0.00;;;-1.00;99.90;;;;;;5051602;28;20228;-73
2023/03/01 02:14:23;;;;;;;0.00;0.00;;;-1.00;99.90;;;;;;5052890;28;20217;-73
2023/03/01 02:16:49;;;;;;;0.00;0.00;;;-1.00;99.90;;;;;;5069480;28;20177;-73
2023/03/01 02:19:30;;;;;;;0.00;0.00;;;-1.00;99.90;;;;;;5061711;28;20573;-73
2023/03/01 02:22:06;;;;;;;0.00;0.00;;;-1.10;99.90;;;;;;5066407;28;20188;-73
2023/03/01 02:24:52;;;;;;;0.00;0.00;;;-1.10;99.90;;;;;;5053715;28;20271;-73
2023/03/01 02:27:24;;;;;;;0.03;0.03;;;-1.20;99.90;;;;;;5068864;28;20188;-73
2023/03/01 02:29:50;;;;;;;0.00;0.00;;;-1.20;99.90;;;;;;5057597;28;20189;-73
2023/03/01 02:32:24;;;;;;;0.00;0.00;;;-1.20;99.90;;;;;;5067513;28;20189;-72
2023/03/01 02:34:54;;;;;;;0.13;0.13;;;-1.20;99.90;;;;;;5056477;28;20255;-73
2023/03/01 02:37:24;;;;;;;0.00;0.00;;;-1.20;99.90;;;;;;5067946;28;20215;-73
2023/03/01 02:39:57;;;;;;;0.10;0.10;;;-1.20;99.90;;;;;;5059588;28;20191;-72
2023/03/01 02:42:26;;;;;;;0.00;0.00;;;-1.20;99.90;;;;;;5054234;28;20664;-72
2023/03/01 02:44:53;;;;;;;0.00;0.00;;;-1.20;99.90;;;;;;5058146;28;20184;-73
2023/03/01 02:47:19;;;;;;;0.00;0.00;;;-1.20;99.90;;;;;;5054526;28;20189;-73
2023/03/01 02:49:44;;;;;;;0.00;0.00;;;-1.20;99.90;;;;;;5054909;28;20193;-73
2023/03/01 02:52:44;;;;;;;0.00;0.00;;;-1.20;99.90;;;;;;5055039;28;20185;-73
2023/03/01 02:55:15;;;;;;;0.00;0.00;;;-1.20;99.90;;;;;;5053054;28;20267;-71
2023/03/01 02:57:44;;;;;;;0.00;0.00;;;-1.30;99.90;;;;;;5067590;28;20521;-72
2023/03/01 03:00:19;;;;;;;0.00;0.00;;;-1.30;99.90;;;;;;5055997;28;20185;-74
2023/03/01 03:02:48;;;;;;;0.00;0.00;;;-1.30;99.90;;;;;;5067356;28;20253;-73
2023/03/01 03:05:26;;;;;;;0.00;0.00;;;-1.40;99.90;;;;;;5051476;28;20205;-73
2023/03/01 03:07:52;;;;;;;0.10;0.10;;;-1.40;99.90;;;;;;5051064;28;20192;-73
2023/03/01 03:10:22;;;;;;;0.53;0.53;;;-1.40;99.90;;;;;;5066103;28;20176;-73
2023/03/01 03:12:56;;;;;;;0.00;0.00;;;-1.40;99.90;;;;;;5053467;28;20660;-73
2023/03/01 03:15:22;;;;;;;0.00;0.00;;;-1.40;99.90;;;;;;5058292;28;20730;-72
2023/03/01 03:17:49;;;;;;;0.00;0.00;;;-1.40;99.90;;;;;;5055837;28;20185;-73
2023/03/01 03:20:18;;;;;;;0.07;0.07;;;-1.50;99.90;;;;;;5053345;28;20209;-73
2023/03/01 03:22:46;;;;;;;0.00;0.00;;;-1.50;99.90;;;;;;5062567;28;21647;-73
2023/03/01 03:25:12;;;;;;;0.00;0.00;;;-1.50;99.90;;;;;;5060865;28;20200;-73
2023/03/01 03:27:39;;;;;;;0.00;0.00;;;-1.50;99.90;;;;;;5052969;28;20708;-73
2023/03/01 03:30:08;;;;;;;0.00;0.00;;;-1.50;99.90;;;;;;5062841;28;20177;-73
2023/03/01 03:32:35;;;;;;;0.00;0.00;;;-1.50;99.90;;;;;;5050607;28;20263;-73
2023/03/01 03:35:01;;;;;;;0.00;0.00;;;-1.50;99.90;;;;;;5049244;28;20188;-73
2023/03/01 03:40:15;;;;;;;1.30;0.60;;;-1.50;99.90;;;;;;5054685;28;20326;-73
2023/03/01 03:42:41;;;;;;;0.00;0.00;;;-1.60;99.90;;;;;;5054355;28;20612;-73
2023/03/01 03:45:07;;;;;;;0.20;0.20;;;-1.60;99.90;;;;;;5054339;28;20687;-74
2023/03/01 03:47:32;;;;;;;0.20;0.20;;;-1.60;99.90;;;;;;5054116;28;20184;-73
2023/03/01 03:49:58;;;;;;;0.00;0.00;;;-1.60;99.90;;;;;;5054136;28;20261;-73
2023/03/01 03:52:23;;;;;;;0.43;0.43;;;-1.60;99.90;;;;;;5053925;28;20265;-72
2023/03/01 03:54:49;;;;;;;0.00;0.00;;;-1.60;99.90;;;;;;5053881;28;20189;-73
2023/03/01 03:57:14;;;;;;;0.10;0.10;;;-1.60;99.90;;;;;;5071188;28;20180;-68
2023/03/01 03:59:40;;;;;;;0.00;0.00;;;-1.60;99.90;;;;;;5062324;28;20185;-73
2023/03/01 04:02:07;;;;;;;0.00;0.00;;;-1.60;99.90;;;;;;5066530;28;20226;-73
2023/03/01 04:04:33;;;;;;;0.00;0.00;;;-1.60;99.90;;;;;;5056963;28;20228;-73
2023/03/01 04:06:58;;;;;;;0.00;0.00;;;-1.60;99.90;;;;;;5051977;28;20240;-73
2023/03/01 04:09:24;;;;;;;0.00;0.00;;;-1.60;99.90;;;;;;5053706;28;20276;-74
2023/03/01 04:11:49;;;;;;;0.00;0.00;;;-1.60;99.90;;;;;;5053983;28;20196;-69
2023/03/01 04:14:15;;;;;;;0.10;0.10;;;-1.60;99.90;;;;;;5063396;28;20228;-69
2023/03/01 04:16:40;;;;;;;0.00;0.00;;;-1.70;99.90;;;;;;5052295;28;20181;-68
2023/03/01 04:19:06;;;;;;;0.30;0.30;;;-1.70;99.90;;;;;;5053594;28;20192;-67
2023/03/01 04:21:32;;;;;;;0.00;0.00;;;-1.60;99.90;;;;;;5052100;28;20185;-71
2023/03/01 04:23:57;;;;;;;0.00;0.00;;;-1.70;99.90;;;;;;5053155;28;20194;-71
2023/03/01 04:26:23;;;;;;;0.30;0.30;;;-1.60;99.90;;;;;;5052472;28;20227;-71
2023/03/01 04:28:50;;;;;;;0.00;0.00;;;-1.60;99.90;;;;;;5060997;28;20177;-71
2023/03/01 04:31:18;;;;;;;0.00;0.00;;;-1.60;99.90;;;;;;5066711;28;20184;-70
2023/03/01 04:33:44;;;;;;;0.00;0.00;;;-1.60;99.90;;;;;;5058955;28;20177;-66
2023/03/01 04:36:11;;;;;;;0.20;0.13;;;-1.70;99.90;;;;;;5062271;28;20193;-73
2023/03/01 04:38:38;;;;;;;0.00;0.00;;;-1.70;99.90;;;;;;5055054;28;20314;-66
2023/03/01 04:41:10;;;;;;;0.00;0.00;;;-1.70;99.90;;;;;;5058377;28;20181;-65
2023/03/01 04:43:37;;;;;;;0.00;0.00;;;-1.70;99.90;;;;;;5057036;28;20181;-64
2023/03/01 04:46:09;;;;;;;0.10;0.10;;;-1.70;99.90;;;;;;5045057;28;20684;-72
2023/03/01 04:48:36;;;;;;;0.00;0.00;;;-1.70;99.90;;;;;;5054338;28;20209;-66
2023/03/01 04:51:03;;;;;;;0.30;0.30;;;-1.70;99.90;;;;;;5053130;28;20189;-67
2023/03/01 04:53:29;;;;;;;0.13;0.13;;;-1.70;99.90;;;;;;5067015;28;20606;-65
2023/03/01 04:55:56;;;;;;;0.00;0.00;;;-1.70;99.90;;;;;;5052294;28;20633;-66
2023/03/01 04:58:26;;;;;;;0.00;0.00;;;-1.70;99.90;;;;;;5054426;28;20186;-67
2023/03/01 05:00:52;;;;;;;0.00;0.00;;;-1.70;99.90;;;;;;5052443;28;20221;-66
2023/03/01 05:03:18;;;;;;;0.00;0.00;;;-1.70;99.90;;;;;;5051971;28;20268;-66
2023/03/01 05:05:45;;;;;;;0.00;0.00;;;-1.80;99.90;;;;;;5051729;28;20296;-68
2023/03/01 05:08:17;;;;;;;0.00;0.00;;;-1.80;99.90;;;;;;5051981;28;20260;-68
2023/03/01 05:10:46;;;;;;;0.00;0.00;;;-1.80;99.90;;;;;;5051815;28;20251;-67
2023/03/01 05:13:20;;;;;;;0.10;0.10;;;-1.80;99.90;;;;;;5051942;28;20177;-67
2023/03/01 05:15:56;;;;;;;0.00;0.00;;;-1.90;99.90;;;;;;5050901;28;20243;-67
2023/03/01 05:18:25;;;;;;;0.10;0.10;;;-1.90;99.90;;;;;;5051783;28;20216;-67
2023/03/01 05:20:52;;;;;;;0.00;0.00;;;-1.90;99.90;;;;;;5051700;28;20641;-67
2023/03/01 05:23:18;;;;;;;0.47;0.47;;;-1.90;99.90;;;;;;5051841;28;20177;-67
2023/03/01 05:25:44;;;;;;;0.00;0.00;;;-1.90;99.90;;;;;;5051935;28;20564;-67
2023/03/01 05:28:13;;;;;;;0.23;0.23;;;-1.90;99.90;;;;;;5052101;28;20272;-67
2023/03/01 05:30:39;;;;;;;0.00;0.00;;;-1.90;99.90;;;;;;5051781;28;20185;-67
2023/03/01 05:33:10;;;;;;;0.03;0.03;;;-1.90;99.90;;;;;;5051964;28;20638;-68
2023/03/01 05:35:35;;;;;;;0.00;0.00;;;-1.90;99.90;;;;;;5051720;28;20185;-67
2023/03/01 05:38:01;;;;;;;0.10;0.10;;;-1.90;99.90;;;;;;5050562;28;20208;-67
2023/03/01 05:40:26;;;;;;;0.00;0.00;;;-1.90;99.90;;;;;;5050502;28;20659;-67
2023/03/01 05:42:55;;;;;;;0.00;0.00;;;-1.90;99.90;;;;;;5051491;28;20223;-67
2023/03/01 05:45:22;;;;;;;0.00;0.00;;;-1.90;99.90;;;;;;5051619;28;20250;-67
2023/03/01 05:47:49;;;;;;;0.07;0.07;;;-1.90;99.90;;;;;;5051469;28;20663;-67
2023/03/01 05:50:18;;;;;;;0.00;0.00;;;-1.90;99.90;;;;;;5051122;28;20166;-65
2023/03/01 05:52:48;;;;;;;0.00;0.00;;;-1.90;99.90;;;;;;5051534;28;20740;-66
2023/03/01 05:55:15;;;;;;;0.00;0.00;;;-2.00;99.90;;;;;;5051610;28;20180;-67
2023/03/01 05:57:41;;;;;;;0.00;0.00;;;-1.90;99.90;;;;;;5051538;28;20181;-67
2023/03/01 06:00:07;;;;;;;0.00;0.00;;;-1.90;99.90;;;;;;5051049;28;20193;-67
2023/03/01 06:02:33;;;;;;;0.00;0.00;;;-2.00;99.90;;;;;;5051649;28;20181;-65
2023/03/01 06:04:58;;;;;;;0.30;0.07;;;-1.90;99.90;;;;;;5051369;28;20189;-65
2023/03/01 06:07:24;;;;;;;0.27;0.27;;;-1.90;99.90;;;;;;5051503;28;20219;-66
2023/03/01 06:09:49;;;;;;;0.30;0.30;;;-1.90;99.90;;;;;;5051532;28;20176;-67
2023/03/01 06:12:15;;;;;;;0.07;0.07;;;-2.00;99.90;;;;;;5048516;28;20193;-68
2023/03/01 06:14:40;;;;;;;0.20;0.20;;;-2.00;99.90;;;;;;5031478;28;20226;-65
2023/03/01 06:17:06;;;;;;;0.20;0.20;;;-2.00;99.90;;;;;;5046963;28;20648;-65
2023/03/01 06:19:31;;;;;;;0.17;0.17;;;-2.00;99.90;;;;;;5031301;28;20182;-66
2023/03/01 06:21:57;;;;;;;0.47;0.47;;;-2.00;99.90;;;;;;5031616;28;20185;-65
2023/03/01 06:24:22;;;;;;;0.23;0.23;;;-2.10;99.90;;;;;;5046809;28;20189;-65
2023/03/01 06:26:48;;;;;;;0.00;0.00;;;-2.00;99.90;;;;;;5031236;28;20274;-66
2023/03/01 06:29:14;;;;;;;0.10;0.10;;;-2.00;99.90;;;;;;5031100;28;20182;-65
2023/03/01 06:31:40;;;;;;;0.00;0.00;;;-2.10;99.90;;;;;;5030932;28;20198;-66
2023/03/01 06:34:05;;;;;;;0.20;0.20;;;-2.00;99.90;;;;;;5030885;28;20221;-66
2023/03/01 06:36:30;;;;;;;0.50;0.50;;;-2.10;99.90;;;;;;5030734;28;20182;-65
2023/03/01 06:38:56;;;;;;;0.17;0.17;;;-2.00;99.90;;;;;;5030944;28;20178;-66
2023/03/01 06:41:22;;;;;;;0.00;0.00;;;-2.00;99.90;;;;;;5030960;28;20676;-65
2023/03/01 06:43:47;;;;;;;0.00;0.00;;;-2.00;99.90;;;;;;5030954;28;20528;-65
2023/03/01 06:46:12;;;;;;;0.00;0.00;;;-2.00;99.90;;;;;;5030813;28;20217;-65
2023/03/01 06:48:38;;;;;;;0.00;0.00;;;-2.00;99.90;;;;;;5030738;28;20213;-66
2023/03/01 06:51:04;;;;;;;0.00;0.00;;;-1.90;99.90;;;;;;5030707;28;20186;-66
2023/03/01 06:53:30;;;;;;;0.00;0.00;;;-1.90;99.90;;;;;;5030839;28;20174;-65
2023/03/01 06:55:56;;;;;;;0.00;0.00;;;-1.80;99.90;;;;;;5029413;28;20178;-65
2023/03/01 06:58:22;;;;;;;0.00;0.00;;;-1.80;99.90;;;;;;5030812;28;20185;-65
2023/03/01 07:00:47;;;;;;;0.67;0.67;;;-1.80;99.90;;;;;;5030661;28;20174;-66
2023/03/01 07:03:13;;;;;;;0.20;0.20;;;-1.70;99.90;;;;;;5030751;28;20185;-66
2023/03/01 07:05:38;;;;;;;0.00;0.00;;;-1.70;99.90;;;;;;5043978;28;20217;-65
2023/03/01 07:08:04;;;;;;;0.00;0.00;;;-1.60;99.90;;;;;;5050637;28;20203;-65
2023/03/01 07:10:29;;;;;;;0.00;0.00;;;-1.50;99.90;;;;;;5050810;28;20181;-65
2023/03/01 07:12:56;;;;;;;1.70;0.60;;;-1.30;99.90;;;;;;5046010;28;20588;-66
2023/03/01 07:15:22;;;;;;;0.20;0.20;;;-1.20;99.90;;;;;;5033053;28;20229;-67
2023/03/01 07:17:50;;;;;;;0.00;0.00;;;-0.90;99.90;;;;;;5034569;28;20228;-66
2023/03/01 07:20:16;;;;;;;0.77;0.30;;;-0.70;99.90;;;;;;5034581;28;20637;-66
2023/03/01 07:22:42;;;;;;;0.35;0.35;;;-0.30;99.90;;;;;;5034426;28;20265;-66
2023/03/01 07:25:10;;;;;;;0.30;0.30;;;0.00;99.90;;;;;;5034381;28;20300;-66
2023/03/01 07:27:36;;;;;;;0.57;0.57;;;0.40;99.90;;;;;;5033976;28;20527;-65
2023/03/01 07:30:02;;;;;;;0.20;0.20;;;0.70;99.90;;;;;;5033126;28;20596;-66
2023/03/01 07:32:28;;;;;;;0.08;0.08;;;1.00;99.90;;;;;;5034342;28;20184;-65
2023/03/01 07:34:53;;;;;;;0.00;0.00;;;1.30;99.90;;;;;;5034335;28;20257;-66
2023/03/01 07:37:19;;;;;;;0.08;0.08;;;1.50;99.90;;;;;;5034381;28;20637;-67
2023/03/01 07:39:44;;;;;;;0.00;0.00;;;1.70;99.90;;;;;;5034329;28;20182;-66
2023/03/01 07:42:10;;;;;;;0.00;0.00;;;1.90;99.90;;;;;;5034336;28;20166;-66
2023/03/01 07:44:35;;;;;;;0.28;0.28;;;2.10;99.80;;;;;;5032802;28;20178;-66
2023/03/01 07:47:01;;;;;;;0.65;0.65;;;2.40;99.40;;;;;;5034043;28;20214;-66
2023/03/01 07:49:26;;;;;;;0.00;0.00;;;2.70;98.50;;;;;;5034142;28;20228;-66
2023/03/01 07:51:52;;;;;;;0.03;0.03;;;2.80;97.70;;;;;;5033946;28;20178;-65
2023/03/01 07:54:18;;;;;;;0.00;0.00;;;3.00;97.50;;;;;;5034091;28;20181;-66
2023/03/01 07:56:44;;;;;;;0.00;0.00;;;3.00;96.50;;;;;;5034124;28;20182;-66
2023/03/01 07:59:09;;;;;;;0.38;0.38;;;3.10;96.50;;;;;;5034046;28;20513;-66
2023/03/01 08:01:35;;;;;;;0.00;0.00;;;3.20;96.10;;;;;;5033902;28;20178;-66
2023/03/01 08:04:01;;;;;;;0.00;0.00;;;3.30;95.80;;;;;;5033948;28;20228;-66
2023/03/01 08:06:27;;;;;;;0.00;0.00;;;3.50;95.50;;;;;;5033800;28;20748;-66
2023/03/01 08:08:55;;;;;;;0.00;0.00;;;3.70;95.00;;;;;;5033810;28;20268;-66
2023/03/01 08:11:21;;;;;;;0.13;0.13;;;3.90;95.10;;;;;;5033825;28;20174;-66
2023/03/01 08:13:48;;;;;;;0.00;0.00;;;4.10;94.50;;;;;;5044215;28;20209;-66
2023/03/01 08:16:15;;;;;;;0.00;0.00;;;4.20;93.20;;;;;;5033772;28;20197;-66
2023/03/01 08:18:42;;;;;;;0.08;0.08;;;4.20;92.90;;;;;;5033669;28;20170;-66
2023/03/01 08:21:11;;;;;;;0.00;0.00;;;4.20;93.00;;;;;;5033740;28;20261;-66
2023/03/01 08:23:37;;;;;;;0.00;0.00;;;4.50;93.30;;;;;;5032917;28;20182;-65
2023/03/01 08:26:08;;;;;;;0.15;0.15;;;4.70;92.40;;;;;;5033515;28;20268;-66
2023/03/01 08:28:34;;;;;;;0.00;0.00;;;4.90;91.60;;;;;;5032899;28;20361;-66
2023/03/01 08:31:00;;;;;;;0.00;0.00;;;4.70;90.50;;;;;;5033088;28;20174;-66
2023/03/01 08:33:25;;;;;;;0.28;0.28;;;4.70;90.80;;;;;;5033515;28;20177;-65
2023/03/01 08:35:51;;;;;;;0.30;0.30;;;4.60;90.60;;;;;;5033400;28;20174;-65
2023/03/01 08:38:16;;;;;;;0.00;0.00;;;4.50;90.80;;;;;;5033453;28;20174;-65
2023/03/01 08:40:42;;;;;;;0.00;0.00;;;4.40;90.30;;;;;;5033357;28;20185;-65
2023/03/01 08:43:07;;;;;;;0.00;0.00;;;4.30;90.60;;;;;;5033408;28;20257;-66
2023/03/01 08:45:33;;;;;;;0.10;0.10;;;4.40;90.50;;;;;;5033167;28;20198;-66
2023/03/01 08:47:58;;;;;;;0.10;0.10;;;4.40;90.50;;;;;;5048858;28;20328;-66
2023/03/01 08:50:24;;;;;;;0.00;0.00;;;4.50;90.20;;;;;;5033276;28;20198;-65
2023/03/01 08:52:50;;;;;;;0.05;0.05;;;4.50;90.40;;;;;;5033422;28;20299;-66
2023/03/01 08:55:17;;;;;;;0.00;0.00;;;4.50;89.90;;;;;;5033420;28;20186;-67
2023/03/01 08:57:43;;;;;;;0.00;0.00;;;4.50;90.40;;;;;;5033163;28;20192;-66
2023/03/01 09:00:11;;;;;;;0.00;0.00;;;4.50;89.80;;;;;;5033230;28;20649;-66
2023/03/01 09:02:37;;;;;;;0.00;0.00;;;4.40;90.20;;;;;;5032996;28;20186;-66
2023/03/01 09:05:02;;;;;;;0.13;0.13;;;4.40;90.30;;;;;;5032935;28;20189;-66
2023/03/01 09:07:28;;;;;;;0.28;0.25;;;4.50;90.50;;;;;;5032994;28;20182;-66
2023/03/01 09:09:55;;;;;;;0.00;0.00;;;4.60;90.20;;;;;;5032781;28;20170;-66
2023/03/01 09:12:21;;;;;;;0.13;0.13;;;4.70;90.00;;;;;;5036337;28;20273;-66
2023/03/01 09:14:46;;;;;;;0.00;0.00;;;4.60;89.60;;;;;;5052417;28;20307;-66
2023/03/01 09:17:12;;;;;;;0.00;0.00;;;4.70;90.20;;;;;;5052484;28;20180;-66
2023/03/01 09:19:37;;;;;;;0.17;0.17;;;4.80;89.90;;;;;;5052612;28;20260;-66
2023/03/01 09:22:04;;;;;;;0.00;0.00;;;4.80;88.80;;;;;;5052514;28;20169;-66
2023/03/01 09:24:29;;;;;;;0.00;0.00;;;4.80;88.90;;;;;;5052485;28;20178;-65
2023/03/01 09:26:56;;;;;;;0.28;0.28;;;4.90;89.40;;;;;;5052469;28;20229;-67
2023/03/01 09:29:22;;;;;;;0.00;0.00;;;4.90;89.30;;;;;;5052425;28;20209;-66
2023/03/01 09:31:48;;;;;;;0.28;0.28;;;5.10;89.50;;;;;;5052254;28;20173;-67
2023/03/01 09:34:15;;;;;;;0.00;0.00;;;5.30;88.70;;;;;;5051393;28;20601;-66
2023/03/01 09:36:41;;;;;;;0.40;0.40;;;5.40;88.10;;;;;;5052079;28;20165;-66
2023/03/01 09:39:07;;;;;;;0.00;0.00;;;5.40;86.70;;;;;;5052179;28;20636;-66
2023/03/01 09:41:38;;;;;;;0.00;0.00;;;5.50;87.70;;;;;;5052044;28;20174;-66
2023/03/01 09:44:15;;;;;;;0.03;0.03;;;5.60;86.90;;;;;;5052218;28;20181;-66
2023/03/01 09:46:44;;;;;;;0.00;0.00;;;5.70;86.80;;;;;;5051944;28;20204;-67
2023/03/01 09:49:17;;;;;;;0.10;0.10;;;5.80;86.60;;;;;;5052164;28;20176;-67
2023/03/01 09:51:47;;;;;;;0.00;0.00;;;5.90;85.90;;;;;;5051920;28;20185;-67
2023/03/01 09:54:13;;;;;;;0.30;0.30;;;5.90;84.70;;;;;;5052042;28;20178;-67
2023/03/01 09:56:53;;;;;;;0.00;0.00;;;5.80;84.10;;;;;;5051863;28;20204;-67
2023/03/01 09:59:50;;;;;;;0.00;0.00;;;5.70;85.00;;;;;;5051916;28;20534;-67
2023/03/01 10:02:24;;;;;;;0.20;0.20;;;5.80;85.40;;;;;;5051832;28;20178;-67
2023/03/01 10:04:52;;;;;;;0.00;0.00;;;5.90;84.60;;;;;;5045216;28;20279;-67
2023/03/01 10:07:39;;;;;;;0.00;0.00;;;6.00;84.40;;;;;;5031917;28;20196;-67
2023/03/01 10:10:07;;;;;;;0.00;0.00;;;6.10;85.50;;;;;;5031919;28;20174;-67
2023/03/01 10:12:39;;;;;;;0.00;0.00;;;6.30;85.20;;;;;;5036794;28;20236;-67
2023/03/01 10:15:15;;;;;;;0.20;0.20;;;6.40;83.70;;;;;;5051572;28;20220;-67
2023/03/01 10:17:58;;;;;;;0.08;0.08;;;6.50;83.00;;;;;;5051702;28;20636;-67
2023/03/01 10:20:43;;;;;;;0.00;0.00;;;6.70;82.80;;;;;;5051758;28;20166;-66
2023/03/01 10:23:10;;;;;;;0.00;0.00;;;6.70;81.80;;;;;;5051529;28;20538;-67
2023/03/01 10:25:38;;;;;;;0.00;0.00;;;6.70;81.80;;;;;;5051161;28;20216;-67
2023/03/01 10:28:29;;;;;;;0.00;0.00;;;6.80;82.20;;;;;;5051543;28;20174;-67
2023/03/01 10:30:56;;;;;;;0.08;0.08;;;7.00;80.70;;;;;;5051431;28;20212;-67
2023/03/01 10:33:25;;;;;;;0.00;0.00;;;6.90;80.10;;;;;;5051390;28;20200;-67
2023/03/01 10:35:51;;;;;;;0.00;0.00;;;6.80;80.00;;;;;;5051245;28;20177;-67
2023/03/01 10:38:20;;;;;;;0.10;0.10;;;6.70;81.40;;;;;;5051471;28;20176;-68
2023/03/01 10:40:57;;;;;;;0.00;0.00;;;6.70;80.10;;;;;;5051413;28;20211;-67
2023/03/01 10:43:30;;;;;;;0.00;0.00;;;6.80;80.90;;;;;;5051451;28;20177;-66
2023/03/01 10:45:56;;;;;;;0.25;0.25;;;7.00;81.00;;;;;;5052481;28;20224;-67
2023/03/01 10:48:28;;;;;;;0.00;0.00;;;7.20;79.20;;;;;;5055531;28;20222;-67
2023/03/01 10:50:59;;;;;;;0.10;0.10;;;7.20;78.70;;;;;;5055425;28;20743;-67
2023/03/01 10:53:30;;;;;;;0.00;0.00;;;7.30;79.00;;;;;;5055752;28;20173;-67
2023/03/01 10:56:26;;;;;;;0.30;0.20;;;7.50;78.10;;;;;;5054261;28;20553;-67
2023/03/01 10:59:02;;;;;;;0.00;0.00;;;7.50;77.00;;;;;;5052960;28;20201;-68
2023/03/01 11:01:32;;;;;;;0.00;0.00;;;7.40;77.10;;;;;;5055284;28;20177;-67
2023/03/01 11:04:06;;;;;;;0.30;0.30;;;7.40;77.80;;;;;;5055379;28;20177;-67
2023/03/01 11:06:34;;;;;;;0.00;0.00;;;7.20;76.60;;;;;;5035154;28;20228;-67
2023/03/01 11:09:15;;;;;;;0.10;0.10;;;7.20;77.10;;;;;;5035289;28;20269;-67
2023/03/01 11:11:42;;;;;;;0.00;0.00;;;7.10;76.60;;;;;;5033911;28;20201;-67
2023/03/01 11:14:20;;;;;;;0.10;0.10;;;7.00;77.50;;;;;;5053064;28;20228;-67
2023/03/01 11:16:49;;;;;;;0.00;0.00;;;7.10;78.70;;;;;;5054944;28;20190;-67
2023/03/01 11:19:20;;;;;;;0.10;0.10;;;7.30;77.20;;;;;;5054853;28;20308;-67
2023/03/01 11:22:07;;;;;;;0.00;0.00;;;7.40;76.90;;;;;;5054973;28;20189;-67
2023/03/01 11:24:41;;;;;;;0.00;0.00;;;7.20;76.20;;;;;;5054776;28;20179;-67
2023/03/01 11:27:15;;;;;;;0.00;0.00;;;7.30;76.80;;;;;;5054605;28;20220;-67
2023/03/01 11:30:04;;;;;;;0.80;0.10;;;7.40;76.90;;;;;;5054707;28;20176;-67
2023/03/01 11:32:39;;;;;;;0.10;0.10;;;7.60;77.10;;;;;;5050478;28;20836;-67
2023/03/01 11:35:10;;;;;;;0.00;0.00;;;7.80;76.10;;;;;;5054768;28;20172;-67
2023/03/01 11:38:00;;;;;;;0.00;0.00;;;8.00;74.90;;;;;;5054435;28;20204;-67
2023/03/01 11:40:31;;;;;;;0.00;0.00;;;8.00;74.80;;;;;;5054445;28;20181;-67
2023/03/01 11:43:09;;;;;;;0.10;0.10;;;8.00;74.10;;;;;;5054534;28;20256;-67
2023/03/01 11:45:50;;;;;;;0.00;0.00;;;8.00;73.80;;;;;;5054279;28;20204;-67
2023/03/01 11:48:50;;;;;;;0.55;0.55;;;8.00;73.50;;;;;;5054404;28;20246;-67
2023/03/01 11:51:43;;;;;;;0.10;0.10;;;7.90;75.00;;;;;;5054222;28;20219;-67
2023/03/01 11:54:38;;;;;;;0.00;0.00;;;7.80;74.40;;;;;;5054365;28;20540;-67
2023/03/01 11:57:43;;;;;;;0.00;0.00;;;7.70;74.00;;;;;;5053405;28;20230;-67
2023/03/01 12:00:35;;;;;;;0.00;0.00;;;7.70;73.70;;;;;;5054107;28;20177;-67
2023/03/01 12:03:29;;;;;;;0.00;0.00;;;7.70;73.90;;;;;;5054296;28;20169;-68
2023/03/01 12:06:24;;;;;;;0.10;0.10;;;7.60;75.30;;;;;;5038357;28;20213;-67
2023/03/01 12:09:13;;;;;;;0.10;0.10;;;7.70;74.90;;;;;;5034197;28;20274;-67
2023/03/01 12:12:03;;;;;;;0.00;0.00;;;7.90;75.90;;;;;;5034151;28;20254;-67
2023/03/01 12:14:49;;;;;;;0.68;0.10;;;7.90;74.40;;;;;;5033927;28;20255;-67
2023/03/01 12:17:29;;;;;;;0.10;0.10;;;7.90;74.20;;;;;;5033939;28;20572;-67
2023/03/01 12:20:22;;;;;;;0.10;0.10;;;7.70;74.10;;;;;;5033763;28;20174;-67
2023/03/01 12:23:21;;;;;;;0.00;0.00;;;7.70;74.40;;;;;;5033834;28;20174;-67
2023/03/01 12:25:53;;;;;;;0.17;0.17;;;7.70;75.00;;;;;;5033719;28;20285;-67
2023/03/01 12:28:42;;;;;;;0.00;0.00;;;7.80;75.20;;;;;;5033796;28;20252;-68
2023/03/01 12:31:13;;;;;;;0.10;0.10;;;7.90;74.20;;;;;;5033782;28;20174;-67
2023/03/01 12:33:47;;;;;;;0.00;0.00;;;7.80;74.00;;;;;;5033547;28;20178;-67
2023/03/01 12:36:40;;;;;;;0.20;0.20;;;7.90;75.30;;;;;;5033576;28;20181;-67
2023/03/01 12:39:38;;;;;;;0.00;0.00;;;8.00;74.40;;;;;;5033681;28;20379;-68
2023/03/01 12:42:26;;;;;;;0.05;0.05;;;8.10;73.70;;;;;;5033667;28;20638;-67
2023/03/01 12:45:06;;;;;;;0.10;0.10;;;8.10;74.00;;;;;;5033341;28;20520;-67
2023/03/01 12:48:10;;;;;;;1.38;0.93;;;8.10;72.50;;;;;;5033255;28;20269;-67
2023/03/01 12:50:46;;;;;;;0.30;0.30;;;7.90;72.40;;;;;;5033172;28;20671;-67
2023/03/01 12:53:34;;;;;;;0.10;0.10;;;7.70;73.50;;;;;;5033266;28;20182;-67
2023/03/01 12:56:05;;;;;;;0.57;0.57;;;7.50;74.10;;;;;;5033190;28;20183;-67
2023/03/01 12:58:59;;;;;;;0.05;0.05;;;7.50;74.60;;;;;;5033217;28;20170;-67
2023/03/01 13:01:45;;;;;;;0.08;0.08;;;7.60;74.80;;;;;;5032779;28;20275;-67
2023/03/01 13:04:39;;;;;;;0.00;0.00;;;7.60;73.50;;;;;;5034339;28;20262;-68
2023/03/01 13:07:19;;;;;;;0.00;0.00;;;7.60;74.80;;;;;;5053000;28;20213;-67
2023/03/01 13:10:02;;;;;;;0.00;0.00;;;7.70;74.80;;;;;;5051432;28;20170;-66